Time;durP1;ratioP1;P1;durP2;ratioP2;P2;SDS_P1;SDS_P2;PMS_P1;PMS_P2;Temp;Humidity;BMP_temperature;BMP_pressure;BME280_temperature;BME280_humidity;BME280_pressure;Samples;Min_cycle;Max_cycle;Signal;HPM_P1;HPM_P2
2022/01/24 00:00:11;;;;;;;5.43;4.40;;;;;;;;;;5016918;28;20525;-72
2022/01/24 00:02:40;;;;;;;6.33;4.83;;;;;;;;;;5017875;28;20497;-72
2022/01/24 00:05:09;;;;;;;7.57;5.23;;;;;;;;;;5017666;28;20447;-72
2022/01/24 00:07:37;;;;;;;7.13;4.93;;;;;;;;;;5017686;28;20578;-72
2022/01/24 00:10:07;;;;;;;8.30;4.87;;;;;;;;;;5018194;28;20538;-72
2022/01/24 00:12:45;;;;;;;8.83;5.20;;;;;;;;;;5017595;28;20899;-72
2022/01/24 00:15:20;;;;;;;7.00;5.03;;;;;;;;;;5017044;28;20455;-72
2022/01/24 00:17:51;;;;;;;6.53;4.03;;;;;;;;;;5016997;28;20494;-72
2022/01/24 00:28:36;;;;;;;7.13;5.03;;;;;;;;;;5016934;28;20514;-72
2022/01/24 00:31:03;;;;;;;7.03;5.37;;;;;;;;;;5016668;28;20531;-72
2022/01/24 00:33:31;;;;;;;7.33;5.43;;;;;;;;;;5017152;28;20474;-72
2022/01/24 00:35:59;;;;;;;7.90;5.70;;;;;;;;;;5016810;28;20459;-72
2022/01/24 00:38:26;;;;;;;10.53;5.93;;;;;;;;;;5017290;28;20880;-72
2022/01/24 00:40:54;;;;;;;8.47;5.20;;;;;;;;;;5016475;28;20538;-71
2022/01/24 00:43:29;;;;;;;8.57;5.70;;;;;;;;;;5016812;28;20459;-72
2022/01/24 00:46:03;;;;;;;13.30;6.37;;;;;;;;;;5016454;28;20811;-72
2022/01/24 00:48:50;;;;;;;7.67;5.47;;;;;;;;;;5016870;28;20482;-72
2022/01/24 00:54:42;;;;;;;8.33;6.23;;;;;;;;;;5016684;28;20422;-71
2022/01/24 00:56:51;;;;;;;9.60;7.20;;;;;;;;;;5016768;28;20471;-72
2022/01/24 00:59:19;;;;;;;13.43;6.70;;;;;;;;;;5016466;28;20444;-72
2022/01/24 01:01:48;;;;;;;10.40;6.60;;;;;;;;;;5016324;28;20467;-73
2022/01/24 01:04:16;;;;;;;9.10;5.97;;;;;;;;;;5016954;28;20461;-72
2022/01/24 01:06:45;;;;;;;8.80;5.23;;;;;;;;;;5016941;28;20939;-73
2022/01/24 01:20:14;;;;;;;9.07;5.67;;;;;;;;;;5016750;28;20878;-72
2022/01/24 01:22:42;;;;;;;6.90;4.90;;;;;;;;;;5016510;28;20478;-71
2022/01/24 01:25:10;;;;;;;10.23;5.67;;;;;;;;;;5016583;28;20897;-71
2022/01/24 01:27:42;;;;;;;13.80;7.37;;;;;;;;;;5016554;28;20527;-71
2022/01/24 01:30:17;;;;;;;14.53;6.10;;;;;;;;;;5016512;28;20494;-71
2022/01/24 01:32:57;;;;;;;8.90;5.57;;;;;;;;;;5016678;28;20459;-71
2022/01/24 01:35:47;;;;;;;11.33;5.97;;;;;;;;;;5016559;28;20509;-71
2022/01/24 01:38:47;;;;;;;9.90;6.60;;;;;;;;;;5016257;28;20479;-71
2022/01/24 01:52:34;;;;;;;13.07;7.30;;;;;;;;;;5020024;28;20542;-71
2022/01/24 01:55:14;;;;;;;12.17;6.73;;;;;;;;;;5019913;28;20462;-72
2022/01/24 01:57:42;;;;;;;12.93;6.60;;;;;;;;;;5019832;28;20743;-72
2022/01/24 02:00:11;;;;;;;10.17;7.17;;;;;;;;;;5019999;28;20465;-72
2022/01/24 02:02:38;;;;;;;11.40;8.07;;;;;;;;;;5019902;28;20536;-72
2022/01/24 02:05:09;;;;;;;10.33;6.93;;;;;;;;;;5019958;28;20451;-72
2022/01/24 02:07:46;;;;;;;11.13;7.10;;;;;;;;;;5019831;28;20542;-72
2022/01/24 02:10:13;;;;;;;11.97;7.70;;;;;;;;;;5020391;28;20453;-72
2022/01/24 02:12:41;;;;;;;14.30;8.33;;;;;;;;;;5019248;28;20477;-72
2022/01/24 02:15:10;;;;;;;11.10;6.77;;;;;;;;;;5019737;28;20462;-72
2022/01/24 02:17:48;;;;;;;11.17;8.07;;;;;;;;;;5020354;28;20499;-72
2022/01/24 02:20:38;;;;;;;11.73;7.03;;;;;;;;;;5020487;28;20459;-72
2022/01/24 02:23:31;;;;;;;10.20;6.27;;;;;;;;;;5019464;28;20463;-73
2022/01/24 02:26:00;;;;;;;12.60;7.47;;;;;;;;;;5019485;28;20451;-72
2022/01/24 02:28:31;;;;;;;10.93;7.50;;;;;;;;;;5020451;28;20569;-72
2022/01/24 02:31:17;;;;;;;13.43;9.93;;;;;;;;;;5019131;28;20474;-72
2022/01/24 02:33:47;;;;;;;13.17;7.33;;;;;;;;;;5020175;28;20459;-72
2022/01/24 02:36:19;;;;;;;13.03;8.13;;;;;;;;;;5020217;28;20466;-72
2022/01/24 02:39:00;;;;;;;15.53;7.93;;;;;;;;;;5019959;28;20451;-72
2022/01/24 02:49:43;;;;;;;11.20;7.80;;;;;;;;;;5019433;28;20424;-72
2022/01/24 02:52:13;;;;;;;12.87;7.90;;;;;;;;;;5020196;28;20782;-72
2022/01/24 02:54:43;;;;;;;10.90;7.23;;;;;;;;;;5019612;28;20475;-72
2022/01/24 02:57:11;;;;;;;11.47;6.87;;;;;;;;;;5019112;28;20486;-72
2022/01/24 02:59:39;;;;;;;9.90;7.13;;;;;;;;;;5019715;28;20486;-71
2022/01/24 03:02:07;;;;;;;11.27;7.93;;;;;;;;;;5019539;28;20482;-72
2022/01/24 03:04:34;;;;;;;10.57;6.40;;;;;;;;;;5019557;28;20534;-72
2022/01/24 03:07:02;;;;;;;7.93;5.83;;;;;;;;;;5019616;28;20541;-71
2022/01/24 03:09:29;;;;;;;9.10;6.87;;;;;;;;;;5019092;28;20465;-71
2022/01/24 03:12:04;;;;;;;7.30;5.03;;;;;;;;;;5019161;28;20459;-72
2022/01/24 03:14:32;;;;;;;5.73;4.10;;;;;;;;;;5019398;28;20459;-72
2022/01/24 03:17:00;;;;;;;8.20;5.43;;;;;;;;;;5019736;28;20459;-72
2022/01/24 03:19:28;;;;;;;8.90;5.43;;;;;;;;;;5019374;28;20812;-72
2022/01/24 03:21:55;;;;;;;8.90;6.90;;;;;;;;;;5019756;28;20467;-72
2022/01/24 03:24:23;;;;;;;7.67;4.67;;;;;;;;;;5019358;28;20450;-72
2022/01/24 03:26:52;;;;;;;7.20;4.97;;;;;;;;;;5019344;28;20458;-72
2022/01/24 03:29:21;;;;;;;8.33;4.13;;;;;;;;;;5019278;28;20488;-72
2022/01/24 03:31:49;;;;;;;6.10;4.37;;;;;;;;;;5018944;28;20497;-72
2022/01/24 03:34:17;;;;;;;9.30;5.20;;;;;;;;;;5019436;28;20451;-72
2022/01/24 03:36:44;;;;;;;7.60;5.10;;;;;;;;;;5018532;28;20483;-72
2022/01/24 03:39:12;;;;;;;8.17;4.53;;;;;;;;;;5020082;28;20447;-72
2022/01/24 03:41:40;;;;;;;8.70;5.43;;;;;;;;;;5017989;28;20860;-72
2022/01/24 03:44:11;;;;;;;7.37;4.77;;;;;;;;;;5015025;28;20470;-72
2022/01/24 03:47:01;;;;;;;5.30;4.13;;;;;;;;;;5019393;28;20756;-72
2022/01/24 03:52:13;;;;;;;8.67;4.53;;;;;;;;;;5016663;28;20439;-72
2022/01/24 03:54:43;;;;;;;6.23;4.03;;;;;;;;;;5019015;28;21123;-72
2022/01/24 03:57:11;;;;;;;7.90;5.20;;;;;;;;;;5019421;28;20544;-72
2022/01/24 03:59:39;;;;;;;5.80;4.47;;;;;;;;;;5019528;28;20478;-72
2022/01/24 04:02:09;;;;;;;7.73;4.87;;;;;;;;;;5018646;28;20469;-71
2022/01/24 04:04:37;;;;;;;7.70;4.37;;;;;;;;;;5019328;28;20455;-71
2022/01/24 04:07:04;;;;;;;5.77;3.57;;;;;;;;;;5018663;28;20546;-71
2022/01/24 04:09:33;;;;;;;7.07;4.20;;;;;;;;;;5018242;28;20487;-71
2022/01/24 04:12:01;;;;;;;6.77;4.50;;;;;;;;;;5018283;28;20561;-71
2022/01/24 04:14:36;;;;;;;6.10;4.50;;;;;;;;;;5019044;28;20808;-74
2022/01/24 04:17:21;;;;;;;7.20;4.67;;;;;;;;;;5018534;28;20460;-72
2022/01/24 04:22:48;;;;;;;4.93;3.90;;;;;;;;;;5017508;28;20521;-73
2022/01/24 04:25:22;;;;;;;6.40;4.70;;;;;;;;;;5017465;28;20742;-73
2022/01/24 04:27:50;;;;;;;7.70;4.60;;;;;;;;;;5016815;28;21001;-73
2022/01/24 04:30:21;;;;;;;6.97;4.70;;;;;;;;;;5012743;28;20518;-73
2022/01/24 04:32:49;;;;;;;7.77;5.60;;;;;;;;;;5017028;28;20459;-73
2022/01/24 04:35:19;;;;;;;8.53;5.20;;;;;;;;;;5017515;28;20790;-73
2022/01/24 04:37:48;;;;;;;7.17;4.40;;;;;;;;;;5017181;28;20717;-73
2022/01/24 04:40:15;;;;;;;6.77;4.50;;;;;;;;;;5017415;28;20464;-72
2022/01/24 04:42:50;;;;;;;8.13;5.73;;;;;;;;;;5017654;28;20459;-72
2022/01/24 04:45:39;;;;;;;7.50;4.90;;;;;;;;;;5017447;28;20449;-72
2022/01/24 04:51:15;;;;;;;7.10;5.10;;;;;;;;;;5017404;28;20505;-73
2022/01/24 04:56:31;;;;;;;8.47;4.93;;;;;;;;;;5008580;28;20439;-73
2022/01/24 04:58:58;;;;;;;10.77;7.03;;;;;;;;;;5018333;28;20452;-73
2022/01/24 05:01:26;;;;;;;7.23;5.57;;;;;;;;;;5010226;28;20458;-73
2022/01/24 05:03:54;;;;;;;7.03;5.57;;;;;;;;;;4998552;28;20535;-73
2022/01/24 05:06:23;;;;;;;9.27;6.10;;;;;;;;;;4996803;28;20448;-73
2022/01/24 05:08:50;;;;;;;7.97;5.37;;;;;;;;;;4997353;28;20501;-73
2022/01/24 05:11:22;;;;;;;6.57;5.07;;;;;;;;;;4996957;28;20510;-73
2022/01/24 05:24:50;;;;;;;8.33;6.27;;;;;;;;;;4952096;28;20435;-73
2022/01/24 05:27:18;;;;;;;6.27;4.37;;;;;;;;;;5010905;28;20942;-73
2022/01/24 05:29:46;;;;;;;11.07;6.77;;;;;;;;;;5021528;28;20592;-72
2022/01/24 05:32:13;;;;;;;7.97;5.30;;;;;;;;;;5021429;28;20553;-73
2022/01/24 05:34:42;;;;;;;8.03;4.87;;;;;;;;;;5021553;28;20463;-72
2022/01/24 05:37:13;;;;;;;6.77;4.90;;;;;;;;;;5021475;28;20455;-73
2022/01/24 05:39:40;;;;;;;7.87;5.20;;;;;;;;;;5021579;28;20455;-73
2022/01/24 05:42:08;;;;;;;8.80;5.53;;;;;;;;;;5021599;28;20443;-72
2022/01/24 05:44:36;;;;;;;8.40;6.20;;;;;;;;;;5021690;28;20478;-72
2022/01/24 05:47:03;;;;;;;12.17;6.10;;;;;;;;;;5021422;28;20474;-72
2022/01/24 05:49:31;;;;;;;7.93;5.10;;;;;;;;;;5021597;28;20494;-72
2022/01/24 05:51:58;;;;;;;6.50;5.57;;;;;;;;;;5021222;28;20462;-72
2022/01/24 05:54:30;;;;;;;8.90;5.63;;;;;;;;;;5021539;28;20491;-72
2022/01/24 05:56:59;;;;;;;11.47;5.50;;;;;;;;;;5021472;28;20459;-72
2022/01/24 05:59:27;;;;;;;13.03;7.00;;;;;;;;;;5019673;28;20439;-72
2022/01/24 06:01:54;;;;;;;8.83;5.50;;;;;;;;;;5021466;28;20528;-73
2022/01/24 06:04:23;;;;;;;8.30;5.50;;;;;;;;;;5020819;28;20455;-72
2022/01/24 06:06:51;;;;;;;10.43;6.10;;;;;;;;;;5020522;28;20459;-73
2022/01/24 06:09:19;;;;;;;10.23;5.70;;;;;;;;;;5020719;28;20564;-73
2022/01/24 06:11:48;;;;;;;11.97;6.70;;;;;;;;;;5020221;28;20459;-73
2022/01/24 06:14:16;;;;;;;9.07;5.83;;;;;;;;;;5020733;28;20786;-73
2022/01/24 06:16:44;;;;;;;12.10;8.30;;;;;;;;;;5018801;28;20752;-73
2022/01/24 06:19:11;;;;;;;9.77;6.37;;;;;;;;;;5014484;28;20444;-72
2022/01/24 06:21:40;;;;;;;12.50;7.03;;;;;;;;;;5018729;28;20513;-73
2022/01/24 06:24:08;;;;;;;10.13;7.20;;;;;;;;;;5020216;28;21226;-72
2022/01/24 06:26:36;;;;;;;10.83;5.80;;;;;;;;;;5017061;28;20814;-73
2022/01/24 06:29:08;;;;;;;11.83;5.57;;;;;;;;;;5014184;28;20516;-73
2022/01/24 06:31:39;;;;;;;10.97;6.27;;;;;;;;;;4998647;28;20448;-73
2022/01/24 06:34:09;;;;;;;11.90;7.73;;;;;;;;;;4996780;28;20548;-74
2022/01/24 06:36:37;;;;;;;10.07;6.63;;;;;;;;;;4998803;28;20448;-73
2022/01/24 06:39:05;;;;;;;10.23;6.70;;;;;;;;;;4999055;28;20734;-73
2022/01/24 06:41:35;;;;;;;8.83;5.47;;;;;;;;;;5001725;28;20571;-72
2022/01/24 06:44:03;;;;;;;13.77;7.30;;;;;;;;;;5017315;28;20462;-73
2022/01/24 06:46:33;;;;;;;12.90;7.20;;;;;;;;;;5013783;28;20491;-73
2022/01/24 06:49:01;;;;;;;16.67;9.60;;;;;;;;;;5018590;28;20537;-73
2022/01/24 06:51:28;;;;;;;9.23;6.60;;;;;;;;;;5016509;28;20466;-73
2022/01/24 06:53:56;;;;;;;11.03;5.93;;;;;;;;;;5019080;28;20444;-72
2022/01/24 06:56:24;;;;;;;9.30;5.27;;;;;;;;;;5018784;28;20550;-72
2022/01/24 06:58:52;;;;;;;9.40;5.67;;;;;;;;;;5017955;28;20457;-72
2022/01/24 07:01:20;;;;;;;14.13;7.53;;;;;;;;;;5018749;28;20536;-72
2022/01/24 07:03:49;;;;;;;9.20;6.83;;;;;;;;;;5015690;28;20511;-73
2022/01/24 07:06:16;;;;;;;11.90;8.00;;;;;;;;;;5016938;28;20502;-73
2022/01/24 07:08:44;;;;;;;11.93;8.03;;;;;;;;;;5015669;28;20487;-72
2022/01/24 07:11:11;;;;;;;14.97;8.00;;;;;;;;;;5017054;28;20520;-73
2022/01/24 07:13:39;;;;;;;10.47;7.37;;;;;;;;;;5016954;28;20475;-73
2022/01/24 07:16:07;;;;;;;12.30;8.17;;;;;;;;;;5017219;28;20537;-73
2022/01/24 07:21:22;;;;;;;10.10;7.13;;;;;;;;;;4996103;28;20435;-72
2022/01/24 07:23:52;;;;;;;9.50;7.07;;;;;;;;;;5002882;28;20460;-73
2022/01/24 07:26:21;;;;;;;11.23;7.27;;;;;;;;;;5016174;28;20939;-72
2022/01/24 07:28:49;;;;;;;12.80;8.43;;;;;;;;;;5017012;28;20487;-72
2022/01/24 07:31:16;;;;;;;13.90;8.07;;;;;;;;;;5016730;28;20462;-73
2022/01/24 07:33:44;;;;;;;12.13;7.70;;;;;;;;;;5015688;28;20458;-72
2022/01/24 07:36:13;;;;;;;10.87;7.57;;;;;;;;;;5015356;28;20463;-73
2022/01/24 07:38:45;;;;;;;11.50;8.20;;;;;;;;;;5016929;28;20451;-72
2022/01/24 07:41:15;;;;;;;14.47;8.70;;;;;;;;;;5015475;28;20467;-72
2022/01/24 07:43:42;;;;;;;12.23;8.20;;;;;;;;;;5003690;28;20447;-73
2022/01/24 07:46:13;;;;;;;12.97;7.50;;;;;;;;;;5014784;28;20455;-71
2022/01/24 07:48:42;;;;;;;11.17;7.13;;;;;;;;;;5015438;28;20910;-73
2022/01/24 07:51:10;;;;;;;11.80;7.27;;;;;;;;;;5015919;28;20451;-73
2022/01/24 07:53:38;;;;;;;14.57;7.83;;;;;;;;;;5015580;28;20462;-73
2022/01/24 07:56:11;;;;;;;12.97;8.30;;;;;;;;;;5015558;28;20451;-73
2022/01/24 07:58:43;;;;;;;14.37;7.50;;;;;;;;;;5013929;28;20447;-73
2022/01/24 08:01:17;;;;;;;11.77;8.10;;;;;;;;;;5007743;28;20460;-73
2022/01/24 08:03:45;;;;;;;11.90;7.30;;;;;;;;;;5015154;28;20438;-73
2022/01/24 08:06:15;;;;;;;13.77;8.03;;;;;;;;;;5015333;28;20459;-73
2022/01/24 08:08:50;;;;;;;13.37;9.47;;;;;;;;;;5015168;28;20448;-73
2022/01/24 08:11:22;;;;;;;11.07;8.50;;;;;;;;;;5015742;28;20443;-73
2022/01/24 08:13:51;;;;;;;11.10;8.33;;;;;;;;;;5015137;28;20465;-72
2022/01/24 08:16:19;;;;;;;14.43;7.90;;;;;;;;;;5015107;28;21087;-72
2022/01/24 08:18:50;;;;;;;11.57;8.37;;;;;;;;;;5015454;28;20447;-71
2022/01/24 08:21:18;;;;;;;10.93;9.00;;;;;;;;;;5015732;28;20817;-72
2022/01/24 08:23:46;;;;;;;14.97;10.63;;;;;;;;;;5015273;28;20447;-72
2022/01/24 08:26:14;;;;;;;14.70;7.40;;;;;;;;;;5015853;28;20474;-72
2022/01/24 08:28:43;;;;;;;12.80;8.60;;;;;;;;;;5014660;28;20509;-71
2022/01/24 08:31:11;;;;;;;10.83;7.77;;;;;;;;;;5015783;28;20587;-72
2022/01/24 08:33:39;;;;;;;12.30;7.90;;;;;;;;;;5010907;28;20464;-73
2022/01/24 08:36:07;;;;;;;11.80;8.27;;;;;;;;;;5013614;28;20541;-72
2022/01/24 08:38:36;;;;;;;11.60;7.77;;;;;;;;;;5011989;28;20517;-72
2022/01/24 08:41:09;;;;;;;15.33;9.60;;;;;;;;;;5011937;28;20550;-71
2022/01/24 08:43:49;;;;;;;12.53;9.27;;;;;;;;;;5011257;28;20459;-72
2022/01/24 08:46:20;;;;;;;13.97;8.30;;;;;;;;;;5011130;28;20467;-72
2022/01/24 08:48:50;;;;;;;19.87;11.90;;;;;;;;;;5008862;28;20795;-71
2022/01/24 08:51:22;;;;;;;14.47;7.87;;;;;;;;;;5013921;28;20466;-71
2022/01/24 08:53:49;;;;;;;14.60;8.90;;;;;;;;;;5012987;28;20483;-72
2022/01/24 08:56:18;;;;;;;14.57;8.50;;;;;;;;;;5013494;28;20497;-73
2022/01/24 08:58:46;;;;;;;13.67;8.40;;;;;;;;;;5013864;28;20550;-72
2022/01/24 09:01:14;;;;;;;15.20;9.30;;;;;;;;;;5012903;28;20487;-69
2022/01/24 09:06:40;;;;;;;15.00;9.40;;;;;;;;;;5006689;28;20470;-72
2022/01/24 09:09:08;;;;;;;16.17;10.43;;;;;;;;;;5013385;28;20943;-71
2022/01/24 09:11:37;;;;;;;12.50;7.40;;;;;;;;;;5014400;28;20531;-72
2022/01/24 09:14:05;;;;;;;12.23;7.67;;;;;;;;;;5009290;28;20558;-70
2022/01/24 09:16:36;;;;;;;15.57;9.67;;;;;;;;;;4996237;28;20456;-70
2022/01/24 09:19:17;;;;;;;12.07;8.30;;;;;;;;;;5011629;28;20459;-71
2022/01/24 09:24:33;;;;;;;13.47;8.33;;;;;;;;;;5009443;28;20455;-71
2022/01/24 09:27:06;;;;;;;11.73;7.90;;;;;;;;;;5016108;28;20443;-71
2022/01/24 09:29:37;;;;;;;13.90;9.00;;;;;;;;;;5013444;28;20484;-72
2022/01/24 09:32:05;;;;;;;13.03;9.47;;;;;;;;;;5011771;28;20455;-72
2022/01/24 09:34:34;;;;;;;16.20;8.47;;;;;;;;;;5014195;28;20447;-72
2022/01/24 09:37:13;;;;;;;11.27;7.17;;;;;;;;;;5008443;28;20482;-72
2022/01/24 09:39:58;;;;;;;10.80;7.80;;;;;;;;;;5003652;28;20475;-72
2022/01/24 09:42:27;;;;;;;13.53;8.53;;;;;;;;;;5014716;28;20459;-72
2022/01/24 09:44:55;;;;;;;15.03;8.80;;;;;;;;;;5015294;28;20766;-71
2022/01/24 09:47:22;;;;;;;11.53;8.50;;;;;;;;;;5015863;28;20450;-71
2022/01/24 09:49:59;;;;;;;13.10;8.50;;;;;;;;;;5015199;28;20996;-72
2022/01/24 09:52:34;;;;;;;14.90;8.57;;;;;;;;;;5021046;28;20447;-69
2022/01/24 09:55:02;;;;;;;10.87;8.83;;;;;;;;;;5013876;28;20459;-72
2022/01/24 09:57:36;;;;;;;12.20;9.20;;;;;;;;;;5004490;28;20940;-72
2022/01/24 10:00:12;;;;;;;14.53;10.70;;;;;;;;;;5009462;28;20506;-73
2022/01/24 10:02:39;;;;;;;10.00;8.17;;;;;;;;;;5007725;28;20459;-73
2022/01/24 10:05:20;;;;;;;13.87;8.90;;;;;;;;;;5015263;28;20463;-72
2022/01/24 10:07:53;;;;;;;16.67;9.60;;;;;;;;;;5010398;28;20843;-72
2022/01/24 10:10:46;;;;;;;16.00;10.63;;;;;;;;;;5017843;28;20504;-72
2022/01/24 10:16:28;;;;;;;9.67;7.40;;;;;;;;;;5019232;28;20450;-72
2022/01/24 10:19:09;;;;;;;14.57;7.63;;;;;;;;;;5018405;28;20860;-72
2022/01/24 10:21:56;;;;;;;13.13;9.33;;;;;;;;;;5016671;28;20459;-73
2022/01/24 10:24:40;;;;;;;13.37;7.13;;;;;;;;;;5018287;28;20462;-72
2022/01/24 10:27:15;;;;;;;11.13;7.47;;;;;;;;;;5009217;28;20487;-70
2022/01/24 10:29:44;;;;;;;13.83;9.23;;;;;;;;;;5016170;28;20954;-71
2022/01/24 10:32:26;;;;;;;11.63;9.00;;;;;;;;;;5016769;28;20538;-71
2022/01/24 10:34:54;;;;;;;11.97;7.60;;;;;;;;;;5016734;28;20791;-71
2022/01/24 10:37:28;;;;;;;12.20;9.03;;;;;;;;;;5016792;28;20470;-71
2022/01/24 10:39:59;;;;;;;13.30;8.97;;;;;;;;;;5017683;28;20459;-70
2022/01/24 10:42:52;;;;;;;12.73;8.47;;;;;;;;;;5016433;28;20458;-71
2022/01/24 10:45:25;;;;;;;10.37;8.10;;;;;;;;;;5018389;28;20760;-72
2022/01/24 10:47:55;;;;;;;11.20;8.33;;;;;;;;;;5017275;28;20443;-71
2022/01/24 10:50:25;;;;;;;12.20;8.77;;;;;;;;;;5016751;28;21169;-71
2022/01/24 10:52:58;;;;;;;12.10;9.37;;;;;;;;;;5017126;28;20447;-71
2022/01/24 10:55:27;;;;;;;13.93;8.70;;;;;;;;;;5018436;28;20562;-71
2022/01/24 10:57:59;;;;;;;11.67;7.80;;;;;;;;;;5016854;28;20447;-71
2022/01/24 11:00:40;;;;;;;47.77;14.10;;;;;;;;;;5015022;28;20501;-71
2022/01/24 11:03:19;;;;;;;10.60;6.33;;;;;;;;;;5007662;28;20470;-70
2022/01/24 11:05:49;;;;;;;14.43;8.77;;;;;;;;;;4998896;28;20479;-73
2022/01/24 11:08:22;;;;;;;13.13;7.30;;;;;;;;;;5003635;28;20463;-71
2022/01/24 11:13:43;;;;;;;11.20;7.57;;;;;;;;;;4997695;28;20814;-71
2022/01/24 11:16:16;;;;;;;13.00;9.33;;;;;;;;;;5017962;28;20459;-72
2022/01/24 11:18:48;;;;;;;12.63;7.80;;;;;;;;;;5017149;28;20525;-71
2022/01/24 11:21:17;;;;;;;13.23;8.57;;;;;;;;;;5018205;28;20513;-71
2022/01/24 11:23:46;;;;;;;11.97;7.63;;;;;;;;;;5016071;28;20807;-71
2022/01/24 11:26:18;;;;;;;11.27;8.40;;;;;;;;;;5016048;28;20574;-71
2022/01/24 11:28:49;;;;;;;15.07;9.43;;;;;;;;;;5017374;28;20471;-71
2022/01/24 11:31:33;;;;;;;15.80;9.60;;;;;;;;;;5016613;28;20493;-71
2022/01/24 11:34:11;;;;;;;12.23;7.60;;;;;;;;;;5015945;28;20530;-71
2022/01/24 11:36:53;;;;;;;12.60;7.17;;;;;;;;;;5017763;28;20545;-72
2022/01/24 11:39:27;;;;;;;13.10;8.17;;;;;;;;;;5017224;28;20473;-72
2022/01/24 11:41:59;;;;;;;15.83;9.47;;;;;;;;;;5016924;28;20462;-72
2022/01/24 11:44:27;;;;;;;12.80;8.93;;;;;;;;;;5017985;28;20483;-73
2022/01/24 11:46:59;;;;;;;12.90;7.93;;;;;;;;;;5015709;28;20458;-72
2022/01/24 11:49:40;;;;;;;13.00;7.80;;;;;;;;;;5016162;28;20454;-73
2022/01/24 11:52:21;;;;;;;14.47;8.10;;;;;;;;;;5008678;28;20468;-71
2022/01/24 11:55:00;;;;;;;13.53;9.50;;;;;;;;;;4997762;28;20487;-71
2022/01/24 11:57:32;;;;;;;10.70;6.60;;;;;;;;;;5007064;28;20722;-71
2022/01/24 12:00:17;;;;;;;15.00;10.43;;;;;;;;;;4997617;28;20475;-71
2022/01/24 12:02:46;;;;;;;14.67;7.33;;;;;;;;;;4996418;28;20495;-72
2022/01/24 12:05:17;;;;;;;15.43;9.67;;;;;;;;;;4996255;28;20861;-71
2022/01/24 12:07:49;;;;;;;16.93;9.10;;;;;;;;;;4996028;28;20462;-72
2022/01/24 12:13:27;;;;;;;10.90;6.13;;;;;;;;;;4993911;28;20461;-70
2022/01/24 12:15:57;;;;;;;15.37;9.17;;;;;;;;;;4996147;28;20468;-70
2022/01/24 12:18:44;;;;;;;13.73;9.37;;;;;;;;;;5027938;28;20870;-70
2022/01/24 12:21:14;;;;;;;15.43;8.80;;;;;;;;;;5020415;28;20489;-70
2022/01/24 12:23:45;;;;;;;12.50;7.87;;;;;;;;;;5015084;28;21035;-70
2022/01/24 12:26:27;;;;;;;13.00;8.67;;;;;;;;;;5014775;28;20913;-70
2022/01/24 12:29:14;;;;;;;15.70;9.13;;;;;;;;;;5016239;28;20451;-72
2022/01/24 12:31:56;;;;;;;12.13;8.40;;;;;;;;;;5019644;28;21128;-70
2022/01/24 12:34:29;;;;;;;15.20;8.47;;;;;;;;;;5016774;28;20462;-71
2022/01/24 12:37:04;;;;;;;13.00;8.50;;;;;;;;;;5016523;28;20539;-70
2022/01/24 12:39:53;;;;;;;13.73;8.40;;;;;;;;;;5016609;28;20466;-74
2022/01/24 12:42:31;;;;;;;14.97;9.27;;;;;;;;;;5016489;28;20534;-71
2022/01/24 12:47:52;;;;;;;17.20;9.10;;;;;;;;;;4995546;28;20424;-71
2022/01/24 12:50:20;;;;;;;16.27;10.03;;;;;;;;;;5015664;28;20553;-73
2022/01/24 12:52:49;;;;;;;14.23;8.53;;;;;;;;;;5016277;28;20451;-72
2022/01/24 12:55:22;;;;;;;14.93;9.30;;;;;;;;;;5015965;28;20455;-72
2022/01/24 12:58:06;;;;;;;13.57;8.10;;;;;;;;;;5014714;28;20475;-71
2022/01/24 13:00:45;;;;;;;13.47;8.53;;;;;;;;;;5013047;28;20478;-72
2022/01/24 13:03:18;;;;;;;14.27;8.63;;;;;;;;;;5016753;28;20447;-71
2022/01/24 13:05:46;;;;;;;12.23;8.10;;;;;;;;;;5017055;28;20526;-72
2022/01/24 13:08:17;;;;;;;13.97;7.53;;;;;;;;;;5016685;28;20463;-72
2022/01/24 13:10:51;;;;;;;14.03;8.13;;;;;;;;;;5015618;28;20577;-71
2022/01/24 13:13:20;;;;;;;14.73;9.13;;;;;;;;;;5015394;28;20490;-72
2022/01/24 13:21:26;;;;;;;12.37;8.30;;;;;;;;;;5015160;28;20434;-72
2022/01/24 13:23:57;;;;;;;15.00;9.70;;;;;;;;;;5015884;28;20466;-72
2022/01/24 13:26:47;;;;;;;13.53;8.70;;;;;;;;;;5016739;28;20933;-72
2022/01/24 13:29:21;;;;;;;16.07;10.67;;;;;;;;;;5004653;28;20837;-72
2022/01/24 13:32:14;;;;;;;14.93;8.20;;;;;;;;;;4999888;28;20500;-72
2022/01/24 13:34:49;;;;;;;14.63;9.67;;;;;;;;;;5001385;28;20475;-72
2022/01/24 13:40:44;;;;;;;45.67;25.90;;;;;;;;;;5020052;28;20439;-73
2022/01/24 13:43:41;;;;;;;14.63;8.60;;;;;;;;;;5020997;28;20458;-72
2022/01/24 13:52:45;;;;;;;14.63;8.37;;;;;;;;;;5025265;28;20562;-72
2022/01/24 13:55:19;;;;;;;14.00;8.43;;;;;;;;;;5025060;28;20494;-72
2022/01/24 14:04:29;;;;;;;13.70;9.20;;;;;;;;;;5021431;28;20434;-72
2022/01/24 14:10:36;;;;;;;13.90;8.13;;;;;;;;;;5025216;28;20443;-72
2022/01/24 14:13:23;;;;;;;14.93;10.57;;;;;;;;;;5006459;28;20472;-71
2022/01/24 14:16:00;;;;;;;11.93;7.60;;;;;;;;;;5003069;28;20498;-71
2022/01/24 14:18:49;;;;;;;10.30;7.80;;;;;;;;;;5004299;28;20452;-72
2022/01/24 14:21:21;;;;;;;11.57;8.53;;;;;;;;;;5016913;28;20952;-74
2022/01/24 14:24:00;;;;;;;9.97;6.43;;;;;;;;;;5017291;28;20466;-72
2022/01/24 14:26:36;;;;;;;13.10;8.50;;;;;;;;;;5013827;28;20449;-73
2022/01/24 14:29:13;;;;;;;6.90;4.50;;;;;;;;;;5006650;28;20516;-73
2022/01/24 14:31:44;;;;;;;8.77;6.33;;;;;;;;;;5017865;28;20818;-73
2022/01/24 14:34:15;;;;;;;9.80;6.70;;;;;;;;;;5021943;28;20936;-74
2022/01/24 14:36:43;;;;;;;13.37;7.83;;;;;;;;;;5018965;28;20463;-73
2022/01/24 14:39:12;;;;;;;10.47;7.30;;;;;;;;;;5020477;28;20452;-73
2022/01/24 14:42:07;;;;;;;13.63;6.83;;;;;;;;;;5021743;28;20459;-73
2022/01/24 14:45:03;;;;;;;12.10;8.00;;;;;;;;;;5019173;28;20483;-72
2022/01/24 14:47:35;;;;;;;10.20;6.60;;;;;;;;;;5020923;28;20463;-74
2022/01/24 14:50:12;;;;;;;13.97;6.80;;;;;;;;;;5020595;28;20830;-73
2022/01/24 14:52:46;;;;;;;13.57;8.00;;;;;;;;;;5002191;28;20962;-73
2022/01/24 14:55:19;;;;;;;13.60;6.00;;;;;;;;;;5001179;28;20515;-72
2022/01/24 14:57:56;;;;;;;12.00;7.10;;;;;;;;;;5001269;28;20464;-72
2022/01/24 15:00:32;;;;;;;9.00;6.23;;;;;;;;;;5001165;28;20489;-73
2022/01/24 15:06:39;;;;;;;11.97;7.50;;;;;;;;;;5015255;28;20708;-72
2022/01/24 15:09:29;;;;;;;9.00;6.17;;;;;;;;;;5019335;28;20467;-72
2022/01/24 15:12:09;;;;;;;16.47;6.90;;;;;;;;;;5007218;28;20493;-71
2022/01/24 15:15:05;;;;;;;10.80;6.60;;;;;;;;;;5021086;28;20970;-73
2022/01/24 15:26:20;;;;;;;10.60;6.70;;;;;;;;;;5010429;28;20462;-72
2022/01/24 15:28:51;;;;;;;12.73;6.80;;;;;;;;;;5018373;28;20458;-73
2022/01/24 15:31:29;;;;;;;8.13;6.20;;;;;;;;;;5018928;28;20490;-73
2022/01/24 15:34:14;;;;;;;14.40;6.57;;;;;;;;;;5013571;28;20451;-73
2022/01/24 15:39:43;;;;;;;10.83;6.13;;;;;;;;;;5018331;28;20446;-74
2022/01/24 15:48:12;;;;;;;14.27;8.17;;;;;;;;;;5016383;28;20870;-72
2022/01/24 15:50:47;;;;;;;9.53;6.50;;;;;;;;;;5020346;28;20474;-72
2022/01/24 15:53:31;;;;;;;9.00;5.40;;;;;;;;;;5022536;28;20463;-72
2022/01/24 15:59:09;;;;;;;;;;;;;;;;;;;;;
2022/01/24 16:01:58;;;;;;;11.10;6.00;;;;;;;;;;5023195;28;20447;-72
2022/01/24 16:04:37;;;;;;;10.83;6.20;;;;;;;;;;5022816;28;20455;-72
2022/01/24 16:07:21;;;;;;;9.50;6.63;;;;;;;;;;5019432;28;20451;-72
2022/01/24 16:09:53;;;;;;;13.10;9.43;;;;;;;;;;5019108;28;20838;-72
2022/01/24 16:12:23;;;;;;;10.90;8.10;;;;;;;;;;5016211;28;20541;-72
2022/01/24 16:14:52;;;;;;;8.53;6.23;;;;;;;;;;5017687;28;20459;-72
2022/01/24 16:17:26;;;;;;;13.00;7.23;;;;;;;;;;5019265;28;20876;-73
2022/01/24 16:25:44;;;;;;;11.13;7.00;;;;;;;;;;4991915;28;20451;-73
2022/01/24 16:28:15;;;;;;;11.97;7.57;;;;;;;;;;4996533;28;20443;-73
2022/01/24 16:30:45;;;;;;;11.53;6.83;;;;;;;;;;4997200;28;20480;-73
2022/01/24 16:33:27;;;;;;;10.80;6.53;;;;;;;;;;5141747;27;20482;-73
2022/01/24 16:35:55;;;;;;;12.67;7.70;;;;;;;;;;5133304;27;20449;-73
2022/01/24 16:38:24;;;;;;;13.50;6.63;;;;;;;;;;5125950;27;20924;-73
2022/01/24 16:40:56;;;;;;;10.83;7.40;;;;;;;;;;5131425;27;20468;-73
2022/01/24 16:43:42;;;;;;;11.43;8.10;;;;;;;;;;5130479;27;20450;-73
2022/01/24 16:49:05;;;;;;;13.50;9.33;;;;;;;;;;5113654;27;20496;-74
2022/01/24 16:51:39;;;;;;;14.10;9.23;;;;;;;;;;5114546;27;20921;-73
2022/01/24 16:54:14;;;;;;;15.43;8.27;;;;;;;;;;5113115;27;20547;-73
2022/01/24 16:56:45;;;;;;;16.93;10.27;;;;;;;;;;5111563;27;20439;-73
2022/01/24 16:59:14;;;;;;;14.93;10.27;;;;;;;;;;5113164;27;20484;-72
2022/01/24 17:01:42;;;;;;;16.90;10.03;;;;;;;;;;5111819;27;20443;-72
2022/01/24 17:04:13;;;;;;;19.40;11.40;;;;;;;;;;5126980;27;20549;-72
2022/01/24 17:06:43;;;;;;;21.17;14.00;;;;;;;;;;5121801;27;20533;-72
2022/01/24 17:09:40;;;;;;;23.23;13.07;;;;;;;;;;5132434;27;20713;-74
2022/01/24 17:12:09;;;;;;;25.07;14.83;;;;;;;;;;5134577;27;20908;-73
2022/01/24 17:14:38;;;;;;;27.20;15.00;;;;;;;;;;5125660;27;20729;-72
2022/01/24 17:17:06;;;;;;;24.00;12.30;;;;;;;;;;5113909;27;20443;-73
2022/01/24 17:19:36;;;;;;;26.77;13.10;;;;;;;;;;5115893;27;20459;-73
2022/01/24 17:22:03;;;;;;;24.13;13.33;;;;;;;;;;5114187;27;20524;-73
2022/01/24 17:24:31;;;;;;;29.83;15.50;;;;;;;;;;5112935;27;20481;-72
2022/01/24 17:27:03;;;;;;;31.97;15.67;;;;;;;;;;5114897;27;21101;-73